createdAt,value
2023-01-17T00:04:07.649Z,96657.19
2023-01-17T00:08:31.079Z,96657.19
2023-01-17T00:12:33.106Z,96653.81
2023-01-17T00:16:34.889Z,96652.47
2023-01-17T00:20:54.948Z,96654.94
2023-01-17T00:25:15.294Z,96643.25
2023-01-17T00:29:16.943Z,96660.19
2023-01-17T00:33:20.483Z,96650.13
2023-01-17T00:37:22.280Z,96654.97
2023-01-17T00:41:23.955Z,96639.09
2023-01-17T00:45:44.340Z,96654.81
2023-01-17T00:50:04.632Z,96653.00
2023-01-17T00:54:25.330Z,96654.56
2023-01-17T00:58:45.773Z,96651.63
2023-01-17T01:03:06.086Z,96657.41
2023-01-17T01:07:26.150Z,96667.31
2023-01-17T01:11:46.644Z,96655.41
2023-01-17T01:16:06.996Z,96655.09
2023-01-17T01:20:28.694Z,96648.06
2023-01-17T01:24:49.212Z,96651.22
2023-01-17T01:29:09.459Z,96660.69
2023-01-17T01:33:19.218Z,96662.78
2023-01-17T01:37:20.922Z,96651.78
2023-01-17T01:41:22.840Z,96642.03
2023-01-17T01:45:29.854Z,96653.63
2023-01-17T01:49:31.607Z,96644.63
2023-01-17T01:53:35.582Z,96644.63
2023-01-17T01:57:43.578Z,96639.63
2023-01-17T02:01:46.601Z,96641.66
2023-01-17T02:05:48.457Z,96634.28
2023-01-17T02:09:50.274Z,96643.66
2023-01-17T02:13:52.039Z,96653.03
2023-01-17T02:18:18.920Z,96650.66
2023-01-17T02:23:00.787Z,96652.25
2023-01-17T02:27:25.022Z,96650.66
2023-01-17T02:31:40.246Z,96649.84
2023-01-17T02:36:11.462Z,96663.63
2023-01-17T02:40:25.144Z,96659.63
2023-01-17T02:44:26.858Z,96669.19
2023-01-17T02:48:30.340Z,96656.03
2023-01-17T02:52:48.064Z,96675.22
2023-01-17T02:57:07.266Z,96681.00
2023-01-17T03:01:38.150Z,96681.59
2023-01-17T03:05:44.713Z,96704.13
2023-01-17T03:09:48.543Z,96686.41
2023-01-17T03:13:56.800Z,96685.97
2023-01-17T03:18:12.900Z,96698.72
2023-01-17T03:22:14.651Z,96713.50
2023-01-17T03:26:16.492Z,96715.47
2023-01-17T03:30:18.545Z,96713.66
2023-01-17T03:34:20.266Z,96701.97
2023-01-17T03:38:22.072Z,96714.88
2023-01-17T03:42:23.878Z,96738.03
2023-01-17T03:46:27.510Z,96724.66
2023-01-17T03:50:29.376Z,96735.03
2023-01-17T03:54:31.170Z,96731.84
2023-01-17T03:58:32.966Z,96737.25
2023-01-17T04:02:34.808Z,96732.66
2023-01-17T04:06:36.621Z,96764.88
2023-01-17T04:10:38.437Z,96743.66
2023-01-17T04:14:41.184Z,96763.72
2023-01-17T04:18:43.571Z,96768.53
2023-01-17T04:22:45.530Z,96771.50
2023-01-17T04:26:47.232Z,96770.84
2023-01-17T04:30:49.043Z,96773.59
2023-01-17T04:34:50.872Z,96785.81
2023-01-17T04:38:52.605Z,96792.94
2023-01-17T04:42:54.438Z,96796.31
2023-01-17T04:46:56.243Z,96808.81
2023-01-17T04:51:02.282Z,96805.97
2023-01-17T04:55:04.540Z,96828.00
2023-01-17T04:59:06.426Z,96827.50
2023-01-17T05:03:08.450Z,96835.25
2023-01-17T05:07:10.730Z,96850.94
2023-01-17T05:11:12.854Z,96857.78
2023-01-17T05:15:14.858Z,96853.47
2023-01-17T05:19:16.574Z,96864.06
2023-01-17T05:23:18.432Z,96861.56
2023-01-17T05:27:20.194Z,96874.66
2023-01-17T05:31:22.200Z,96872.06
2023-01-17T05:35:29.432Z,96880.53
2023-01-17T05:39:31.268Z,96868.00
2023-01-17T05:43:33.062Z,96887.28
2023-01-17T05:47:35.079Z,96888.66
2023-01-17T05:51:38.035Z,96888.31
2023-01-17T05:55:40.079Z,96886.94
2023-01-17T05:59:41.863Z,96882.28
2023-01-17T06:03:43.715Z,96893.63
2023-01-17T06:07:46.183Z,96889.91
2023-01-17T06:11:48.029Z,96910.22
2023-01-17T06:15:49.914Z,96898.66
2023-01-17T06:19:51.722Z,96901.63
2023-01-17T06:23:55.385Z,96913.38
2023-01-17T06:27:57.308Z,96903.69
2023-01-17T06:32:01.503Z,96907.16
2023-01-17T06:36:03.920Z,96913.25
2023-01-17T06:40:06.664Z,96922.53
2023-01-17T06:44:09.932Z,96933.19
2023-01-17T06:48:11.797Z,96942.22
2023-01-17T06:52:13.755Z,96941.56
2023-01-17T06:56:15.735Z,96931.53
2023-01-17T07:00:20.429Z,96950.31
2023-01-17T07:04:22.235Z,96971.41
2023-01-17T07:08:24.253Z,96965.00
2023-01-17T07:12:26.433Z,96985.91
2023-01-17T07:16:28.200Z,96986.47
2023-01-17T07:20:30.660Z,96992.50
2023-01-17T07:24:34.304Z,97001.94
2023-01-17T07:28:36.142Z,96984.28
2023-01-17T07:32:38.251Z,96986.63
2023-01-17T07:36:40.021Z,96994.63
2023-01-17T07:40:42.501Z,96986.56
2023-01-17T07:44:45.223Z,96998.00
2023-01-17T07:48:47.165Z,96987.69
2023-01-17T07:52:52.044Z,96989.94
2023-01-17T07:56:53.921Z,97004.34
2023-01-17T08:01:01.468Z,97025.88
2023-01-17T08:05:03.599Z,97009.31
2023-01-17T08:09:05.510Z,97002.50
2023-01-17T08:13:07.344Z,97018.69
2023-01-17T08:17:16.481Z,97004.41
2023-01-17T08:21:18.413Z,97013.22
2023-01-17T08:25:20.470Z,97024.56
2023-01-17T08:29:22.922Z,97036.00
2023-01-17T08:33:24.719Z,97044.41
2023-01-17T08:37:26.541Z,97056.69
2023-01-17T08:41:28.374Z,97050.75
2023-01-17T08:45:30.268Z,97060.28
2023-01-17T08:49:32.107Z,97063.00
2023-01-17T08:53:34.067Z,97056.78
2023-01-17T08:57:35.948Z,97075.97
2023-01-17T09:01:41.932Z,97062.50
2023-01-17T09:05:43.820Z,97054.56
2023-01-17T09:09:45.714Z,97061.00
2023-01-17T09:13:47.526Z,97082.59
2023-01-17T09:17:49.541Z,97104.56
2023-01-17T09:21:51.416Z,97105.69
2023-01-17T09:25:59.794Z,97097.34
2023-01-17T09:30:01.676Z,97099.22
2023-01-17T09:34:03.490Z,97101.28
2023-01-17T09:38:06.191Z,97103.19
2023-01-17T09:42:39.305Z,97100.78
2023-01-17T09:46:44.771Z,97118.50
2023-01-17T09:51:15.755Z,97112.09
2023-01-17T09:55:17.815Z,97118.72
2023-01-17T10:00:02.623Z,97130.31
2023-01-17T10:04:52.664Z,97140.00
2023-01-17T10:09:13.207Z,97135.53
2023-01-17T10:13:55.369Z,97138.00
2023-01-17T10:18:29.905Z,97135.56
2023-01-17T10:23:04.083Z,97133.88
2023-01-17T10:27:18.416Z,97138.00
2023-01-17T10:31:28.660Z,97135.25
2023-01-17T10:35:33.565Z,97138.09
2023-01-17T10:39:35.375Z,97145.13
2023-01-17T10:44:04.744Z,97142.13
2023-01-17T10:48:32.752Z,97146.44
2023-01-17T10:52:43.519Z,97162.59
2023-01-17T10:56:45.315Z,97169.28
2023-01-17T11:01:07.715Z,97155.13
2023-01-17T11:05:28.826Z,97173.13
2023-01-17T11:09:48.102Z,97187.13
2023-01-17T11:13:55.080Z,97160.38
2023-01-17T11:18:07.439Z,97168.78
2023-01-17T11:22:19.525Z,97166.81
2023-01-17T11:26:31.941Z,97168.06
2023-01-17T11:30:34.218Z,97152.72
2023-01-17T11:34:36.607Z,97169.28
2023-01-17T11:38:38.455Z,97150.94
2023-01-17T11:42:45.806Z,97147.09
2023-01-17T11:46:48.427Z,97153.53
2023-01-17T11:51:11.641Z,97153.44
2023-01-17T11:55:15.975Z,97156.88
2023-01-17T11:59:31.868Z,97151.91
2023-01-17T12:04:26.121Z,97157.66
2023-01-17T12:08:55.091Z,97149.03
2023-01-17T12:13:27.866Z,97160.50
2023-01-17T12:18:11.121Z,97163.41
2023-01-17T12:22:46.700Z,97155.91
2023-01-17T12:27:12.956Z,97150.75
2023-01-17T12:31:33.399Z,97158.72
2023-01-17T12:35:50.964Z,97158.63
2023-01-17T12:40:12.956Z,97171.03
2023-01-17T12:44:15.823Z,97159.22
2023-01-17T12:48:19.575Z,97169.47
2023-01-17T12:52:54.075Z,97164.81
2023-01-17T12:57:12.067Z,97155.75
2023-01-17T13:01:39.926Z,97159.03
2023-01-17T13:05:51.340Z,97174.59
2023-01-17T13:10:03.514Z,97155.66
2023-01-17T13:14:09.143Z,97169.72
2023-01-17T13:18:15.603Z,97176.69
2023-01-17T13:22:21.836Z,97180.72
2023-01-17T13:26:45.167Z,97176.94
2023-01-17T13:31:26.382Z,97195.72
2023-01-17T13:35:42.006Z,97197.75
2023-01-17T13:40:03.699Z,97200.91
2023-01-17T13:44:24.614Z,97217.84
2023-01-17T13:48:39.292Z,97218.94
2023-01-17T13:52:41.272Z,97220.53
2023-01-17T13:56:43.135Z,97216.06
2023-01-17T14:00:44.934Z,97214.44
2023-01-17T14:05:17.520Z,97217.19
2023-01-17T14:09:42.859Z,97223.38
2023-01-17T14:13:44.786Z,97217.41
2023-01-17T14:17:59.178Z,97227.25
2023-01-17T14:22:20.435Z,97234.75
2023-01-17T14:27:16.356Z,97230.13
2023-01-17T14:31:19.535Z,97230.31
2023-01-17T14:35:27.193Z,97218.06
2023-01-17T14:39:31.686Z,97218.53
2023-01-17T14:43:36.227Z,97219.28
2023-01-17T14:47:42.753Z,97225.63
2023-01-17T14:51:44.513Z,97244.34
2023-01-17T14:55:49.680Z,97240.97
2023-01-17T15:00:42.779Z,97242.94
2023-01-17T15:04:47.593Z,97242.03
2023-01-17T15:08:49.733Z,97247.66
2023-01-17T15:12:52.321Z,97242.81
2023-01-17T15:17:41.172Z,97244.31
2023-01-17T15:21:43.875Z,97249.03
2023-01-17T15:25:47.792Z,97251.69
2023-01-17T15:29:49.688Z,97244.00
2023-01-17T15:33:56.259Z,97256.31
2023-01-17T15:38:05.524Z,97260.09
2023-01-17T15:42:25.958Z,97257.44
2023-01-17T15:46:46.832Z,97269.00
2023-01-17T15:50:49.502Z,97259.78
2023-01-17T15:55:05.747Z,97266.59
2023-01-17T15:59:56.515Z,97277.56
2023-01-17T16:03:58.723Z,97275.53
2023-01-17T16:08:04.365Z,97270.47
2023-01-17T16:12:06.800Z,97278.06
2023-01-17T16:16:16.217Z,97269.84
2023-01-17T16:21:47.791Z,97268.69
2023-01-17T16:25:49.977Z,97266.72
2023-01-17T16:29:51.844Z,97275.53
2023-01-17T16:33:53.680Z,97270.88
2023-01-17T16:37:58.021Z,97270.94
2023-01-17T16:42:02.017Z,97255.78
2023-01-17T16:46:04.577Z,97256.41
2023-01-17T16:50:11.239Z,97270.88
2023-01-17T16:54:13.093Z,97264.13
2023-01-17T16:58:15.326Z,97259.06
2023-01-17T17:02:18.643Z,97256.31
2023-01-17T17:06:21.567Z,97255.19
2023-01-17T17:10:25.235Z,97260.34
2023-01-17T17:14:30.693Z,97258.59
2023-01-17T17:18:36.756Z,97246.25
2023-01-17T17:22:50.052Z,97254.38
2023-01-17T17:26:59.342Z,97247.59
2023-01-17T17:31:10.753Z,97245.56
2023-01-17T17:35:13.187Z,97258.81
2023-01-17T17:39:15.707Z,97276.59
2023-01-17T17:43:17.948Z,97273.53
2023-01-17T17:47:19.814Z,97276.91
2023-01-17T17:51:23.593Z,97267.44
2023-01-17T17:55:25.491Z,97266.78
2023-01-17T17:59:32.892Z,97267.72
2023-01-17T18:03:34.811Z,97283.16
2023-01-17T18:07:36.894Z,97288.50
2023-01-17T18:11:55.032Z,97292.19
2023-01-17T18:16:31.027Z,97288.19
2023-01-17T18:20:32.968Z,97286.03
2023-01-17T18:24:35.541Z,97290.22
2023-01-17T18:28:40.712Z,97283.13
2023-01-17T18:33:00.107Z,97290.66
2023-01-17T18:37:13.307Z,97287.25
2023-01-17T18:41:34.749Z,97286.44
2023-01-17T18:45:40.603Z,97300.28
2023-01-17T18:49:42.923Z,97295.91
2023-01-17T18:53:48.889Z,97296.03
2023-01-17T18:57:50.777Z,97296.53
2023-01-17T19:01:53.620Z,97298.22
2023-01-17T19:06:00.845Z,97306.44
2023-01-17T19:10:08.410Z,97297.56
2023-01-17T19:14:10.982Z,97313.63
2023-01-17T19:19:14.206Z,97298.19
2023-01-17T19:23:16.146Z,97311.19
2023-01-17T19:27:24.270Z,97338.19
2023-01-17T19:31:32.538Z,97324.63
2023-01-17T19:35:37.456Z,97331.66
2023-01-17T19:39:50.888Z,97328.88
2023-01-17T19:44:04.135Z,97319.25
2023-01-17T19:48:08.419Z,97325.72
2023-01-17T19:52:13.010Z,97335.22
2023-01-17T19:56:23.232Z,97339.22
2023-01-17T20:00:30.072Z,97340.94
2023-01-17T20:04:32.282Z,97346.06
2023-01-17T20:08:35.212Z,97342.97
2023-01-17T20:12:36.995Z,97353.81
2023-01-17T20:16:38.957Z,97361.53
2023-01-17T20:20:56.986Z,97368.22
2023-01-17T20:25:01.045Z,97368.84
2023-01-17T20:29:16.400Z,97379.00
2023-01-17T20:33:19.003Z,97372.97
2023-01-17T20:37:25.071Z,97396.16
2023-01-17T20:41:37.648Z,97386.63
2023-01-17T20:45:39.784Z,97392.88
2023-01-17T20:49:44.494Z,97397.50
2023-01-17T20:53:50.291Z,97397.66
2023-01-17T20:57:52.723Z,97387.72
2023-01-17T21:01:54.873Z,97399.94
2023-01-17T21:06:10.595Z,97372.81
2023-01-17T21:10:16.527Z,97394.34
2023-01-17T21:14:21.754Z,97381.94
2023-01-17T21:18:24.421Z,97382.00
2023-01-17T21:22:26.256Z,97383.63
2023-01-17T21:26:28.743Z,97397.44
2023-01-17T21:30:30.604Z,97395.81
2023-01-17T21:34:33.580Z,97384.88
2023-01-17T21:38:35.411Z,97380.69
2023-01-17T21:42:38.550Z,97371.59
2023-01-17T21:46:40.929Z,97386.13
2023-01-17T21:50:42.944Z,97384.50
2023-01-17T21:55:03.058Z,97378.19
2023-01-17T21:59:04.945Z,97387.59
2023-01-17T22:03:06.701Z,97371.13
2023-01-17T22:07:08.487Z,97363.16
2023-01-17T22:11:12.650Z,97361.97
2023-01-17T22:15:14.555Z,97352.72
2023-01-17T22:19:16.966Z,97349.38
2023-01-17T22:23:18.772Z,97352.84
2023-01-17T22:27:20.600Z,97339.84
2023-01-17T22:31:24.745Z,97344.84
2023-01-17T22:35:26.718Z,97328.00
2023-01-17T22:39:28.538Z,97325.44
2023-01-17T22:43:30.307Z,97326.91
2023-01-17T22:47:34.668Z,97332.66
2023-01-17T22:51:36.543Z,97333.88
2023-01-17T22:55:40.843Z,97315.88
2023-01-17T22:59:42.629Z,97327.88
2023-01-17T23:03:44.973Z,97320.41
2023-01-17T23:07:50.276Z,97293.22
2023-01-17T23:11:54.065Z,97293.44
2023-01-17T23:16:14.177Z,97273.66
2023-01-17T23:20:16.501Z,97268.97
2023-01-17T23:24:18.361Z,97267.25
2023-01-17T23:28:20.960Z,97278.41
2023-01-17T23:32:22.801Z,97265.41
2023-01-17T23:36:24.562Z,97271.44
2023-01-17T23:40:26.335Z,97265.81
2023-01-17T23:44:31.764Z,97274.06
2023-01-17T23:48:36.541Z,97273.81
2023-01-17T23:52:38.271Z,97274.97
2023-01-17T23:56:40.087Z,97277.88
